createdAt,value
2022-10-23T00:01:38.328Z,13.10
2022-10-23T00:04:17.711Z,13.10
2022-10-23T00:06:45.353Z,13.20
2022-10-23T00:09:16.852Z,13.20
2022-10-23T00:11:44.842Z,13.20
2022-10-23T00:14:11.808Z,13.10
2022-10-23T00:16:38.884Z,13.10
2022-10-23T00:19:06.206Z,13.10
2022-10-23T00:21:33.245Z,13.10
2022-10-23T00:24:00.851Z,13.10
2022-10-23T00:26:28.148Z,13.10
2022-10-23T00:28:55.838Z,13.20
2022-10-23T00:31:24.269Z,13.10
2022-10-23T00:33:52.638Z,13.20
2022-10-23T00:36:20.820Z,13.20
2022-10-23T00:38:48.469Z,13.20
2022-10-23T00:41:24.301Z,13.20
2022-10-23T00:44:31.065Z,13.20
2022-10-23T00:46:59.806Z,13.20
2022-10-23T00:49:28.209Z,13.20
2022-10-23T00:52:02.110Z,13.20
2022-10-23T00:54:33.813Z,13.20
2022-10-23T00:57:02.234Z,13.20
2022-10-23T00:59:30.506Z,13.20
2022-10-23T01:01:58.393Z,13.20
2022-10-23T01:04:27.948Z,13.20
2022-10-23T01:07:04.121Z,13.20
2022-10-23T01:10:03.942Z,13.20
2022-10-23T01:12:53.152Z,13.20
2022-10-23T01:15:42.498Z,13.10
2022-10-23T01:18:21.080Z,13.10
2022-10-23T01:21:01.248Z,13.00
2022-10-23T01:24:08.876Z,12.90
2022-10-23T01:27:11.271Z,12.90
2022-10-23T01:29:48.615Z,13.00
2022-10-23T01:32:32.110Z,12.90
2022-10-23T01:35:20.573Z,12.90
2022-10-23T01:38:06.125Z,12.80
2022-10-23T01:41:03.696Z,12.80
2022-10-23T01:43:40.148Z,12.80
2022-10-23T01:46:12.983Z,12.90
2022-10-23T01:48:43.143Z,12.90
2022-10-23T01:51:13.217Z,12.90
2022-10-23T01:53:43.298Z,12.90
2022-10-23T01:56:17.957Z,12.90
2022-10-23T01:58:48.726Z,12.90
2022-10-23T02:01:18.266Z,12.90
2022-10-23T02:03:51.042Z,12.90
2022-10-23T02:06:18.746Z,12.80
2022-10-23T02:08:46.103Z,12.80
2022-10-23T02:11:20.946Z,12.80
2022-10-23T02:14:22.603Z,12.80
2022-10-23T02:16:51.809Z,12.80
2022-10-23T02:19:27.871Z,12.80
2022-10-23T02:22:21.154Z,12.70
2022-10-23T02:25:05.772Z,12.70
2022-10-23T02:27:45.156Z,12.70
2022-10-23T02:30:15.537Z,12.70
2022-10-23T02:32:50.972Z,12.70
2022-10-23T02:35:22.946Z,12.70
2022-10-23T02:37:58.597Z,12.70
2022-10-23T02:40:38.790Z,12.70
2022-10-23T02:43:16.556Z,12.70
2022-10-23T02:45:56.472Z,12.70
2022-10-23T02:48:32.579Z,12.70
2022-10-23T02:51:07.975Z,12.70
2022-10-23T02:53:55.075Z,12.70
2022-10-23T02:56:42.548Z,12.70
2022-10-23T02:59:20.640Z,12.70
2022-10-23T03:02:20.036Z,12.70
2022-10-23T03:04:47.969Z,12.80
2022-10-23T03:07:18.117Z,12.80
2022-10-23T03:09:45.092Z,12.80
2022-10-23T03:12:13.829Z,12.80
2022-10-23T03:14:40.763Z,12.80
2022-10-23T03:17:08.221Z,12.80
2022-10-23T03:19:35.264Z,12.80
2022-10-23T03:22:06.113Z,12.80
2022-10-23T03:24:33.061Z,12.80
2022-10-23T03:27:00.002Z,12.80
2022-10-23T03:29:32.076Z,12.80
2022-10-23T03:31:59.020Z,12.80
2022-10-23T03:34:26.427Z,12.70
2022-10-23T03:36:54.587Z,12.80
2022-10-23T03:39:21.941Z,12.70
2022-10-23T03:41:48.959Z,12.70
2022-10-23T03:44:17.427Z,12.70
2022-10-23T03:46:49.790Z,12.70
2022-10-23T03:49:16.751Z,12.80
2022-10-23T03:51:44.933Z,12.80
2022-10-23T03:54:11.823Z,12.80
2022-10-23T03:56:38.764Z,12.70
2022-10-23T03:59:07.926Z,12.70
2022-10-23T04:01:34.881Z,12.70
2022-10-23T04:04:01.952Z,12.80
2022-10-23T04:06:29.461Z,12.80
2022-10-23T04:08:58.397Z,12.80
2022-10-23T04:11:25.885Z,12.80
2022-10-23T04:13:53.232Z,12.80
2022-10-23T04:16:20.217Z,12.80
2022-10-23T04:18:47.240Z,12.80
2022-10-23T04:21:14.182Z,12.90
2022-10-23T04:23:41.063Z,12.90
2022-10-23T04:26:13.336Z,12.90
2022-10-23T04:28:40.463Z,12.90
2022-10-23T04:31:07.445Z,12.90
2022-10-23T04:33:34.740Z,12.90
2022-10-23T04:36:01.643Z,12.90
2022-10-23T04:38:28.785Z,12.80
2022-10-23T04:40:55.721Z,12.80
2022-10-23T04:43:23.240Z,12.80
2022-10-23T04:45:50.266Z,12.80
2022-10-23T04:48:17.478Z,12.80
2022-10-23T04:51:07.615Z,12.80
2022-10-23T04:53:52.980Z,12.80
2022-10-23T04:56:36.781Z,12.80
2022-10-23T04:59:07.827Z,12.80
2022-10-23T05:01:37.957Z,12.80
2022-10-23T05:04:07.340Z,12.80
2022-10-23T05:06:43.523Z,12.80
2022-10-23T05:09:33.076Z,12.80
2022-10-23T05:12:09.156Z,12.80
2022-10-23T05:14:36.063Z,12.80
2022-10-23T05:17:09.445Z,12.70
2022-10-23T05:19:46.148Z,12.70
2022-10-23T05:22:14.017Z,12.70
2022-10-23T05:24:50.952Z,12.80
2022-10-23T05:27:22.114Z,12.70
2022-10-23T05:29:50.827Z,12.70
2022-10-23T05:34:54.441Z,12.70
2022-10-23T05:37:25.251Z,12.70
2022-10-23T05:39:59.880Z,12.70
2022-10-23T05:42:26.758Z,12.70
2022-10-23T05:44:55.741Z,12.70
2022-10-23T05:48:10.592Z,12.70
2022-10-23T05:51:07.954Z,12.70
2022-10-23T05:53:54.913Z,12.70
2022-10-23T05:56:33.190Z,12.70
2022-10-23T05:59:09.239Z,12.70
2022-10-23T06:02:02.443Z,12.70
2022-10-23T06:04:44.714Z,12.70
2022-10-23T06:07:33.710Z,12.70
2022-10-23T06:10:06.394Z,12.70
2022-10-23T06:12:36.584Z,12.70
2022-10-23T06:15:04.776Z,12.80
2022-10-23T06:17:51.574Z,12.70
2022-10-23T06:20:18.698Z,12.70
2022-10-23T06:22:53.205Z,12.70
2022-10-23T06:25:39.776Z,12.70
2022-10-23T06:28:08.005Z,12.70
2022-10-23T06:30:39.390Z,12.70
2022-10-23T06:33:06.624Z,12.70
2022-10-23T06:35:34.018Z,12.70
2022-10-23T06:38:01.431Z,12.70
2022-10-23T06:40:38.450Z,12.70
2022-10-23T06:43:09.651Z,12.70
2022-10-23T06:45:55.760Z,12.70
2022-10-23T06:48:22.706Z,12.70
2022-10-23T06:51:04.417Z,12.70
2022-10-23T06:53:38.799Z,12.70
2022-10-23T06:56:14.443Z,12.70
2022-10-23T06:58:42.018Z,12.80
2022-10-23T07:01:16.374Z,12.80
2022-10-23T07:03:45.431Z,12.80
2022-10-23T07:06:14.862Z,12.80
2022-10-23T07:08:42.461Z,12.90
2022-10-23T07:11:29.357Z,12.90
2022-10-23T07:13:58.217Z,12.90
2022-10-23T07:16:25.314Z,12.90
2022-10-23T07:19:01.156Z,13.00
2022-10-23T07:21:34.729Z,13.00
2022-10-23T07:24:25.303Z,13.00
2022-10-23T07:26:53.912Z,13.10
2022-10-23T07:29:23.463Z,13.10
2022-10-23T07:31:50.522Z,13.20
2022-10-23T07:34:37.113Z,13.20
2022-10-23T07:37:18.165Z,13.20
2022-10-23T07:39:46.420Z,13.20
2022-10-23T07:42:13.874Z,13.20
2022-10-23T07:44:41.819Z,13.30
2022-10-23T07:47:09.769Z,13.30
2022-10-23T07:49:40.431Z,13.40
2022-10-23T07:52:08.323Z,13.40
2022-10-23T07:54:55.228Z,13.40
2022-10-23T07:57:26.432Z,13.50
2022-10-23T08:00:07.704Z,13.60
2022-10-23T08:02:40.929Z,13.60
2022-10-23T08:05:10.294Z,13.60
2022-10-23T08:07:52.172Z,13.70
2022-10-23T08:10:19.266Z,13.70
2022-10-23T08:12:46.429Z,13.80
2022-10-23T08:15:13.891Z,13.90
2022-10-23T08:17:51.362Z,13.90
2022-10-23T08:20:29.239Z,14.00
2022-10-23T08:22:57.084Z,14.00
2022-10-23T08:25:28.375Z,14.10
2022-10-23T08:27:55.625Z,14.20
2022-10-23T08:30:23.001Z,14.20
2022-10-23T08:32:50.120Z,14.20
2022-10-23T08:35:17.522Z,14.30
2022-10-23T08:37:44.887Z,14.30
2022-10-23T08:40:18.859Z,14.30
2022-10-23T08:43:36.396Z,14.30
2022-10-23T08:46:20.205Z,14.30
2022-10-23T08:49:27.847Z,14.30
2022-10-23T08:52:00.646Z,14.40
2022-10-23T08:54:47.801Z,14.30
2022-10-23T08:57:17.901Z,14.40
2022-10-23T08:59:44.838Z,14.40
2022-10-23T09:02:27.264Z,14.40
2022-10-23T09:04:56.786Z,14.40
2022-10-23T09:07:45.463Z,14.40
2022-10-23T09:10:24.745Z,14.50
2022-10-23T09:12:53.048Z,14.50
2022-10-23T09:15:22.834Z,14.50
2022-10-23T09:17:56.037Z,14.60
2022-10-23T09:20:25.869Z,14.60
2022-10-23T09:23:18.941Z,14.70
2022-10-23T09:25:47.485Z,14.70
2022-10-23T09:28:22.932Z,14.70
2022-10-23T09:30:52.089Z,14.70
2022-10-23T09:33:23.955Z,14.80
2022-10-23T09:35:56.773Z,14.90
2022-10-23T09:38:30.526Z,15.00
2022-10-23T09:41:01.750Z,14.90
2022-10-23T09:43:29.370Z,15.00
2022-10-23T09:46:07.884Z,15.10
2022-10-23T09:48:38.425Z,15.10
2022-10-23T09:51:17.750Z,15.10
2022-10-23T09:53:51.688Z,15.10
2022-10-23T09:56:39.735Z,15.10
2022-10-23T09:59:27.874Z,15.20
2022-10-23T10:02:22.598Z,15.30
2022-10-23T10:05:29.507Z,15.30
2022-10-23T10:08:20.379Z,15.40
2022-10-23T10:11:21.531Z,15.50
2022-10-23T10:14:23.312Z,15.60
2022-10-23T10:16:50.231Z,15.60
2022-10-23T10:19:35.658Z,15.70
2022-10-23T10:22:24.718Z,15.80
2022-10-23T10:24:54.478Z,15.80
2022-10-23T10:27:38.983Z,15.90
2022-10-23T10:30:19.767Z,15.90
2022-10-23T10:32:48.990Z,16.00
2022-10-23T10:35:34.174Z,16.10
2022-10-23T10:38:22.688Z,16.10
2022-10-23T10:41:05.810Z,16.20
2022-10-23T10:43:46.893Z,16.20
2022-10-23T10:46:44.578Z,16.30
2022-10-23T10:49:29.013Z,16.40
2022-10-23T10:52:19.068Z,16.50
2022-10-23T10:55:10.439Z,16.50
2022-10-23T10:57:43.405Z,16.60
2022-10-23T11:00:17.165Z,16.70
2022-10-23T11:02:53.563Z,16.80
2022-10-23T11:05:33.506Z,16.90
2022-10-23T11:08:22.387Z,16.90
2022-10-23T11:10:53.424Z,16.80
2022-10-23T11:13:35.801Z,16.90
2022-10-23T11:16:09.099Z,17.00
2022-10-23T11:18:37.308Z,17.00
2022-10-23T11:21:42.636Z,17.00
2022-10-23T11:24:45.329Z,17.10
2022-10-23T11:27:38.503Z,17.10
2022-10-23T11:30:23.605Z,17.30
2022-10-23T11:33:20.606Z,17.30
2022-10-23T11:36:00.622Z,17.40
2022-10-23T11:38:36.932Z,17.50
2022-10-23T11:41:18.906Z,17.60
2022-10-23T11:44:04.625Z,17.60
2022-10-23T11:46:39.345Z,17.60
2022-10-23T11:49:21.151Z,17.70
2022-10-23T11:51:48.128Z,17.70
2022-10-23T11:54:15.234Z,17.70
2022-10-23T11:57:10.293Z,17.70
2022-10-23T11:59:52.156Z,17.70
2022-10-23T12:02:32.088Z,17.80
2022-10-23T12:05:28.225Z,17.80
2022-10-23T12:08:00.406Z,17.80
2022-10-23T12:10:31.826Z,17.80
2022-10-23T12:13:42.561Z,17.80
2022-10-23T12:16:09.553Z,17.90
2022-10-23T12:18:48.630Z,17.80
2022-10-23T12:21:28.654Z,17.80
2022-10-23T12:24:06.996Z,17.80
2022-10-23T12:26:52.711Z,17.90
2022-10-23T12:29:35.539Z,17.90
2022-10-23T12:32:05.753Z,17.90
2022-10-23T12:34:42.912Z,17.90
2022-10-23T12:37:44.148Z,17.90
2022-10-23T12:40:12.279Z,17.90
2022-10-23T12:42:40.095Z,18.00
2022-10-23T12:45:10.608Z,18.00
2022-10-23T12:50:28.203Z,18.00
2022-10-23T12:53:04.826Z,18.00
2022-10-23T12:56:07.130Z,18.10
2022-10-23T12:58:37.443Z,18.10
2022-10-23T13:01:31.607Z,18.10
2022-10-23T13:04:25.033Z,18.10
2022-10-23T13:06:53.328Z,18.20
2022-10-23T13:09:43.307Z,18.20
2022-10-23T13:12:39.222Z,18.30
2022-10-23T13:15:06.713Z,18.30
2022-10-23T13:17:49.410Z,18.30
2022-10-23T13:20:38.318Z,18.40
2022-10-23T13:23:10.158Z,18.40
2022-10-23T13:25:41.505Z,18.40
2022-10-23T13:28:08.556Z,18.40
2022-10-23T13:30:43.131Z,18.40
2022-10-23T13:33:24.090Z,18.40
2022-10-23T13:36:04.869Z,18.40
2022-10-23T13:38:38.594Z,18.50
2022-10-23T13:41:19.016Z,18.50
2022-10-23T13:43:50.038Z,18.60
2022-10-23T13:46:19.915Z,18.60
2022-10-23T13:48:48.736Z,18.60
2022-10-23T13:51:32.766Z,18.60
2022-10-23T13:54:00.780Z,18.60
2022-10-23T13:56:28.226Z,18.60
2022-10-23T13:58:55.529Z,18.60
2022-10-23T14:01:30.278Z,18.70
2022-10-23T14:03:58.718Z,18.70
2022-10-23T14:06:26.212Z,18.70
2022-10-23T14:08:53.217Z,18.60
2022-10-23T14:11:20.687Z,18.60
2022-10-23T14:13:48.579Z,18.60
2022-10-23T14:16:17.607Z,18.60
2022-10-23T14:18:46.355Z,18.60
2022-10-23T14:21:17.477Z,18.60
2022-10-23T14:23:46.334Z,18.60
2022-10-23T14:26:16.025Z,18.60
2022-10-23T14:28:45.285Z,18.60
2022-10-23T14:31:17.988Z,18.60
2022-10-23T14:33:46.238Z,18.50
2022-10-23T14:36:14.566Z,18.50
2022-10-23T14:38:42.279Z,18.50
2022-10-23T14:41:18.978Z,18.40
2022-10-23T14:43:46.036Z,18.30
2022-10-23T14:46:18.532Z,18.30
2022-10-23T14:48:48.156Z,18.40
2022-10-23T14:51:37.064Z,18.40
2022-10-23T14:54:07.313Z,18.40
2022-10-23T14:56:41.494Z,18.40
2022-10-23T14:59:11.820Z,18.30
2022-10-23T15:01:43.859Z,18.30
2022-10-23T15:04:14.816Z,18.30
2022-10-23T15:06:42.475Z,18.20
2022-10-23T15:09:09.967Z,18.20
2022-10-23T15:11:38.251Z,18.20
2022-10-23T15:14:05.402Z,18.30
2022-10-23T15:16:32.542Z,18.20
2022-10-23T15:19:00.947Z,18.20
2022-10-23T15:21:28.274Z,18.20
2022-10-23T15:23:55.237Z,18.20
2022-10-23T15:26:23.637Z,18.10
2022-10-23T15:28:58.913Z,18.20
2022-10-23T15:31:37.965Z,18.10
2022-10-23T15:34:09.517Z,18.20
2022-10-23T15:36:37.903Z,18.20
2022-10-23T15:39:08.738Z,18.10
2022-10-23T15:41:37.591Z,18.10
2022-10-23T15:44:06.547Z,18.10
2022-10-23T15:46:34.175Z,18.10
2022-10-23T15:49:01.492Z,18.10
2022-10-23T15:51:30.752Z,18.00
2022-10-23T15:53:59.182Z,18.00
2022-10-23T15:56:26.448Z,18.00
2022-10-23T15:58:53.381Z,18.00
2022-10-23T16:01:20.400Z,18.10
2022-10-23T16:03:47.755Z,18.00
2022-10-23T16:06:15.933Z,18.00
2022-10-23T16:08:46.164Z,18.00
2022-10-23T16:11:26.002Z,17.90
2022-10-23T16:13:56.449Z,17.90
2022-10-23T16:16:24.417Z,17.90
2022-10-23T16:18:51.646Z,17.80
2022-10-23T16:21:27.710Z,17.80
2022-10-23T16:23:56.868Z,17.80
2022-10-23T16:26:24.630Z,17.80
2022-10-23T16:28:56.088Z,17.80
2022-10-23T16:31:24.428Z,17.80
2022-10-23T16:33:52.408Z,17.70
2022-10-23T16:36:20.547Z,17.70
2022-10-23T16:39:07.401Z,17.70
2022-10-23T16:42:03.999Z,17.70
2022-10-23T16:44:59.737Z,17.70
2022-10-23T16:47:26.823Z,17.70
2022-10-23T16:49:53.805Z,17.60
2022-10-23T16:52:20.879Z,17.60
2022-10-23T16:54:47.738Z,17.60
2022-10-23T16:57:14.920Z,17.60
2022-10-23T16:59:41.854Z,17.60
2022-10-23T17:02:14.343Z,17.60
2022-10-23T17:04:42.884Z,17.60
2022-10-23T17:07:10.103Z,17.60
2022-10-23T17:09:38.481Z,17.60
2022-10-23T17:12:06.137Z,17.60
2022-10-23T17:14:33.280Z,17.50
2022-10-23T17:17:03.666Z,17.50
2022-10-23T17:19:44.685Z,17.50
2022-10-23T17:22:13.616Z,17.50
2022-10-23T17:24:44.161Z,17.40
2022-10-23T17:27:13.451Z,17.40
2022-10-23T17:29:40.332Z,17.40
2022-10-23T17:32:07.744Z,17.40
2022-10-23T17:34:34.729Z,17.40
2022-10-23T17:37:01.745Z,17.40
2022-10-23T17:39:29.911Z,17.30
2022-10-23T17:41:57.612Z,17.40
2022-10-23T17:44:25.749Z,17.40
2022-10-23T17:46:54.241Z,17.30
2022-10-23T17:49:22.821Z,17.30
2022-10-23T17:51:57.955Z,17.30
2022-10-23T17:54:26.243Z,17.20
2022-10-23T17:56:53.287Z,17.30
2022-10-23T17:59:20.286Z,17.30
2022-10-23T18:01:49.083Z,17.30
2022-10-23T18:04:19.248Z,17.30
2022-10-23T18:06:49.591Z,17.30
2022-10-23T18:09:17.173Z,17.30
2022-10-23T18:11:48.138Z,17.30
2022-10-23T18:14:20.030Z,17.30
2022-10-23T18:16:50.787Z,17.30
2022-10-23T18:19:20.085Z,17.30
2022-10-23T18:21:49.787Z,17.40
2022-10-23T18:24:17.256Z,17.40
2022-10-23T18:26:46.038Z,17.50
2022-10-23T18:29:13.859Z,17.50
2022-10-23T18:31:43.879Z,17.50
2022-10-23T18:34:23.773Z,17.50
2022-10-23T18:36:55.340Z,17.50
2022-10-23T18:39:25.362Z,17.50
2022-10-23T18:41:54.972Z,17.50
2022-10-23T18:44:23.468Z,17.50
2022-10-23T18:46:51.211Z,17.50
2022-10-23T18:49:19.200Z,17.50
2022-10-23T18:51:47.210Z,17.60
2022-10-23T18:54:16.275Z,17.40
2022-10-23T18:56:43.615Z,17.40
2022-10-23T18:59:17.773Z,17.30
2022-10-23T19:01:45.033Z,17.20
2022-10-23T19:04:14.077Z,17.20
2022-10-23T19:06:41.342Z,17.10
2022-10-23T19:09:11.494Z,17.10
2022-10-23T19:11:38.852Z,17.10
2022-10-23T19:14:06.187Z,16.90
2022-10-23T19:16:41.450Z,16.90
2022-10-23T19:19:24.441Z,16.80
2022-10-23T19:21:52.833Z,16.80
2022-10-23T19:24:25.866Z,16.70
2022-10-23T19:26:54.270Z,16.70
2022-10-23T19:29:24.481Z,16.60
2022-10-23T19:31:51.970Z,16.60
2022-10-23T19:34:20.637Z,16.50
2022-10-23T19:36:48.871Z,16.40
2022-10-23T19:39:17.046Z,16.30
2022-10-23T19:41:44.746Z,16.20
2022-10-23T19:44:13.279Z,16.10
2022-10-23T19:46:42.758Z,16.00
2022-10-23T19:49:13.057Z,15.90
2022-10-23T19:51:40.601Z,15.90
2022-10-23T19:54:07.539Z,15.90
2022-10-23T19:56:36.879Z,15.80
2022-10-23T19:59:04.980Z,15.80
2022-10-23T20:01:32.305Z,15.70
2022-10-23T20:04:01.431Z,15.70
2022-10-23T20:06:32.913Z,15.70
2022-10-23T20:09:09.428Z,15.70
2022-10-23T20:11:39.581Z,15.70
2022-10-23T20:14:09.304Z,15.70
2022-10-23T20:16:39.265Z,15.70
2022-10-23T20:19:09.786Z,15.60
2022-10-23T20:21:38.693Z,15.70
2022-10-23T20:24:08.552Z,15.70
2022-10-23T20:26:35.776Z,15.70
2022-10-23T20:29:06.333Z,15.70
2022-10-23T20:31:34.014Z,15.70
2022-10-23T20:34:01.598Z,15.80
2022-10-23T20:36:31.887Z,15.80
2022-10-23T20:39:03.194Z,15.80
2022-10-23T20:41:33.170Z,15.80
2022-10-23T20:44:01.973Z,15.90
2022-10-23T20:46:29.141Z,15.80
2022-10-23T20:48:56.691Z,15.80
2022-10-23T20:51:25.320Z,15.80
2022-10-23T20:53:54.588Z,15.80
2022-10-23T20:56:31.175Z,15.80
2022-10-23T20:59:25.128Z,15.80
2022-10-23T21:01:57.957Z,15.70
2022-10-23T21:04:30.230Z,15.70
2022-10-23T21:07:14.372Z,15.80
2022-10-23T21:09:41.480Z,15.80
2022-10-23T21:12:10.245Z,15.70
2022-10-23T21:14:38.990Z,15.70
2022-10-23T21:17:06.256Z,15.70
2022-10-23T21:19:33.290Z,15.80
2022-10-23T21:22:02.384Z,15.80
2022-10-23T21:24:29.725Z,15.90
2022-10-23T21:26:56.793Z,15.90
2022-10-23T21:29:23.764Z,16.00
2022-10-23T21:32:01.864Z,16.00
2022-10-23T21:34:29.919Z,16.00
2022-10-23T21:37:14.083Z,15.90
2022-10-23T21:39:42.750Z,15.80
2022-10-23T21:42:13.710Z,15.70
2022-10-23T21:44:42.391Z,15.60
2022-10-23T21:47:09.437Z,15.50
2022-10-23T21:49:36.572Z,15.50
2022-10-23T21:52:05.743Z,15.40
2022-10-23T21:54:33.188Z,15.40
2022-10-23T21:57:00.446Z,15.30
2022-10-23T21:59:30.142Z,15.30
2022-10-23T22:01:59.020Z,15.30
2022-10-23T22:04:26.237Z,15.30
2022-10-23T22:06:53.728Z,15.20
2022-10-23T22:09:23.009Z,15.20
2022-10-23T22:11:51.328Z,15.20
2022-10-23T22:14:18.832Z,15.20
2022-10-23T22:16:46.670Z,15.20
2022-10-23T22:19:15.602Z,15.20
2022-10-23T22:21:43.157Z,15.30
2022-10-23T22:24:10.105Z,15.30
2022-10-23T22:26:43.334Z,15.30
2022-10-23T22:29:14.062Z,15.30
2022-10-23T22:31:44.245Z,15.30
2022-10-23T22:34:34.789Z,15.30
2022-10-23T22:37:10.833Z,15.30
2022-10-23T22:39:38.022Z,15.30
2022-10-23T22:42:06.180Z,15.30
2022-10-23T22:44:33.200Z,15.30
2022-10-23T22:47:00.119Z,15.30
2022-10-23T22:49:27.402Z,15.30
2022-10-23T22:51:54.327Z,15.30
2022-10-23T22:54:21.150Z,15.30
2022-10-23T22:56:48.382Z,15.20
2022-10-23T22:59:15.400Z,15.20
2022-10-23T23:01:45.651Z,15.30
2022-10-23T23:04:36.747Z,15.30
2022-10-23T23:07:04.010Z,15.20
2022-10-23T23:09:31.279Z,15.30
2022-10-23T23:11:58.290Z,15.20
2022-10-23T23:14:25.274Z,15.30
2022-10-23T23:16:53.464Z,15.30
2022-10-23T23:19:23.014Z,15.40
2022-10-23T23:21:50.280Z,15.40
2022-10-23T23:24:20.230Z,15.30
2022-10-23T23:26:47.233Z,15.30
2022-10-23T23:29:14.317Z,15.40
2022-10-23T23:31:41.193Z,15.40
2022-10-23T23:34:08.238Z,15.40
2022-10-23T23:36:37.776Z,15.50
2022-10-23T23:41:37.520Z,15.40
2022-10-23T23:44:08.538Z,15.40
2022-10-23T23:46:35.491Z,15.40
2022-10-23T23:49:02.615Z,15.40
2022-10-23T23:51:29.507Z,15.40
2022-10-23T23:53:56.422Z,15.40
2022-10-23T23:56:23.508Z,15.40
2022-10-23T23:58:50.479Z,15.40
